Time;durP1;ratioP1;P1;durP2;ratioP2;P2;SDS_P1;SDS_P2;PMS_P1;PMS_P2;Temp;Humidity;BMP_temperature;BMP_pressure;BME280_temperature;BME280_humidity;BME280_pressure;Samples;Min_cycle;Max_cycle;Signal;HPM_P1;HPM_P2
2023/05/12 00:18:35;;;;;;;;;;;;;;;;;;;;;
2023/05/12 00:33:31;;;;;;;;;;;;;;;;;;6111649;23;20098;-96
2023/05/12 00:45:28;;;;;;;;;;;;;;;;;;6162785;23;19916;-96
2023/05/12 00:47:56;;;;;;;;;;;;;;;;;;6161393;23;19920;-96
2023/05/12 01:02:17;;;;;;;;;;;;;;;;;;6020355;23;19919;-96
2023/05/12 07:39:00;;;;;;;;;;;;;;;;;;;;;
2023/05/12 07:41:40;;;;;;;;;;;;;;;;;;6155369;23;20218;-96
2023/05/12 08:00:29;;;;;;;;;;;;;;;;;;6187463;23;19927;-96
2023/05/12 08:03:01;;;;;;;;;;;;;;;;;;6135651;23;19920;-96
2023/05/12 08:05:33;;;;;;;;;;;;;;;;;;6136022;23;19999;-95
2023/05/12 08:08:42;;;;;;;;;;;;;;;;;;6163060;23;19940;-96
2023/05/12 08:11:10;;;;;;;;;;;;;;;;;;6157588;23;19917;-96
2023/05/12 08:13:36;;;;;;;;;;;;;;;;;;6134742;23;20010;-95
2023/05/12 08:16:09;;;;;;;;;;;;;;;;;;6134512;23;19923;-96
2023/05/12 08:18:35;;;;;;;;;;;;;;;;;;6136355;23;19928;-96
2023/05/12 08:21:04;;;;;;;;;;;;;;;;;;6145704;23;19916;-96
2023/05/12 08:26:42;;;;;;;;;;;;;;;;;;;;;
2023/05/12 08:29:42;;;;;;;;;;;;;;;;;;6080222;23;19953;-96
2023/05/12 08:32:20;;;;;;;;;;;;;;;;;;6056927;23;19987;-96
2023/05/12 08:34:55;;;;;;;;;;;;;;;;;;5999937;23;19926;-96
2023/05/12 08:43:44;;;;;;;;;;;;;;;;;;6063789;23;19918;-96
2023/05/12 08:58:21;;;;;;;;;;;;;;;;;;;;;
2023/05/12 09:07:05;;;;;;;;;;;;;;;;;;6101553;23;19961;-96
2023/05/12 09:09:35;;;;;;;;;;;;;;;;;;6080948;23;19918;-96
2023/05/12 09:12:21;;;;;;;;;;;;;;;;;;;;;
2023/05/12 09:14:50;;;;;;;;;;;;;;;;;;6081119;23;19917;-96
2023/05/12 09:17:32;;;;;;;;;;;;;;;;;;6082318;23;19921;-96
2023/05/12 09:20:28;;;;;;;;;;;;;;;;;;;;;
2023/05/12 09:22:59;;;;;;;;;;;;;;;;;;6103686;23;20395;-96
2023/05/12 09:25:45;;;;;;;;;;;;;;;;;;;;;
2023/05/12 09:28:43;;;;;;;;;;;;;;;;;;;;;
2023/05/12 09:31:18;;;;;;;;;;;;;;;;;;6108261;23;19916;-96
2023/05/12 09:33:53;;;;;;;;;;;;;;;;;;6143679;23;20250;-96
2023/05/12 09:36:41;;;;;;;;;;;;;;;;;;6124570;23;19924;-96
2023/05/12 09:39:10;;;;;;;;;;;;;;;;;;6142269;23;19926;-97
2023/05/12 09:41:38;;;;;;;;;;;;;;;;;;6143589;23;19956;-96
2023/05/12 09:44:16;;;;;;;;;;;;;;;;;;6144340;23;20002;-96
2023/05/12 09:46:43;;;;;;;;;;;;;;;;;;6105586;23;19917;-96
2023/05/12 09:49:09;;;;;;;;;;;;;;;;;;6071484;23;19945;-96
2023/05/12 09:51:36;;;;;;;;;;;;;;;;;;6071108;23;19921;-96
2023/05/12 09:54:05;;;;;;;;;;;;;;;;;;6071679;23;19952;-96
2023/05/12 09:56:34;;;;;;;;;;;;;;;;;;6071036;23;19917;-96
2023/05/12 09:59:00;;;;;;;;;;;;;;;;;;6047448;23;19980;-96
2023/05/12 10:01:26;;;;;;;;;;;;;;;;;;6047439;23;20020;-96
2023/05/12 10:03:53;;;;;;;;;;;;;;;;;;6072803;23;19926;-96
2023/05/12 10:06:51;;;;;;;;;;;;;;;;;;;;;
2023/05/12 10:09:08;;;;;;;;;;;;;;;;;;6095634;23;19920;-96
2023/05/12 10:11:34;;;;;;;;;;;;;;;;;;6077876;23;19996;-96
2023/05/12 10:14:00;;;;;;;;;;;;;;;;;;6077703;23;19921;-96
2023/05/12 10:16:26;;;;;;;;;;;;;;;;;;6076211;23;19973;-96
2023/05/12 10:18:55;;;;;;;;;;;;;;;;;;6106081;23;20286;-96
2023/05/12 10:21:25;;;;;;;;;;;;;;;;;;6131525;23;19987;-96
2023/05/12 10:29:46;;;;;;;;;;;;;;;;;;6116018;23;19920;-96
2023/05/12 10:32:18;;;;;;;;;;;;;;;;;;6121575;23;19989;-96
2023/05/12 10:40:25;;;;;;;;;;;;;;;;;;6140455;23;20020;-96
2023/05/12 10:43:01;;;;;;;;;;;;;;;;;;6109160;23;19928;-96
2023/05/12 10:48:19;;;;;;;;;;;;;;;;;;6092178;23;19983;-95
2023/05/12 10:50:45;;;;;;;;;;;;;;;;;;6108294;23;19935;-96
2023/05/12 10:56:07;;;;;;;;;;;;;;;;;;6085581;23;20255;-96
2023/05/12 11:01:26;;;;;;;;;;;;;;;;;;6057630;23;19975;-96
2023/05/12 11:04:01;;;;;;;;;;;;;;;;;;6053651;23;19917;-96
2023/05/12 11:16:02;;;;;;;;;;;;;;;;;;;;;
2023/05/12 11:18:54;;;;;;;;;;;;;;;;;;;;;
2023/05/12 12:20:20;;;;;;;;;;;;;;;;;;6192085;23;19936;-96
2023/05/12 12:28:22;;;;;;;;;;;;;;;;;;6181621;23;19920;-93
2023/05/12 12:30:54;;;;;;;;;;;;;;;;;;6147005;23;19915;-96
2023/05/12 12:33:21;;;;;;;;;;;;;;;;;;6168500;23;19917;-94
2023/05/12 12:35:47;;;;;;;;;;;;;;;;;;6134632;23;19931;-95
2023/05/12 12:38:13;;;;;;;;;;;;;;;;;;6134855;23;20219;-90
2023/05/12 12:40:39;;;;;;;;;;;;;;;;;;6157625;23;19916;-88
2023/05/12 12:43:05;;;;;;;;;;;;;;;;;;6158135;23;19924;-92
2023/05/12 12:45:31;;;;;;;;;;;;;;;;;;6134537;23;19952;-93
2023/05/12 12:47:57;;;;;;;;;;;;;;;;;;6140579;23;19916;-96
2023/05/12 12:50:26;;;;;;;;;;;;;;;;;;6140053;23;19927;-96
2023/05/12 12:52:52;;;;;;;;;;;;;;;;;;6144960;23;19986;-96
2023/05/12 12:55:18;;;;;;;;;;;;;;;;;;6139338;23;19951;-95
2023/05/12 13:01:22;;;;;;;;;;;;;;;;;;6058489;23;19922;-95
2023/05/12 13:06:58;;;;;;;;;;;;;;;;;;6099956;23;19927;-91
2023/05/12 13:09:26;;;;;;;;;;;;;;;;;;6161292;23;19916;-91
2023/05/12 13:11:52;;;;;;;;;;;;;;;;;;6162762;23;19916;-93
2023/05/12 13:17:22;;;;;;;;;;;;;;;;;;6208765;23;19927;-95
2023/05/12 16:01:16;;;;;;;;;;;;;;;;;;6180654;23;19920;-96
2023/05/12 16:08:59;;;;;;;;;;;;;;;;;;6189677;23;19920;-96
2023/05/12 16:11:33;;;;;;;;;;;;;;;;;;6160287;23;19956;-96
2023/05/12 16:14:01;;;;;;;;;;;;;;;;;;6138566;23;19927;-96
2023/05/12 16:16:46;;;;;;;;;;;;;;;;;;;;;
2023/05/12 16:45:24;;;;;;;;;;;;;;;;;;6166078;23;19927;-93
2023/05/12 16:47:50;;;;;;;;;;;;;;;;;;6108523;23;19924;-96
2023/05/12 16:50:16;;;;;;;;;;;;;;;;;;6114416;23;19991;-96
2023/05/12 17:03:08;;;;;;;;;;;;;;;;;;6186473;23;19931;-96
2023/05/12 17:05:37;;;;;;;;;;;;;;;;;;6206360;23;19940;-95
2023/05/12 17:08:10;;;;;;;;;;;;;;;;;;6196017;23;19916;-96
2023/05/12 17:21:12;;;;;;;;;;;;;;;;;;6201809;23;19982;-95
2023/05/12 17:23:39;;;;;;;;;;;;;;;;;;6164855;23;19915;-95
2023/05/12 17:26:08;;;;;;;;;;;;;;;;;;6166476;23;19915;-94
2023/05/12 17:28:37;;;;;;;;;;;;;;;;;;6192962;23;19962;-95
2023/05/12 17:31:13;;;;;;;;;;;;;;;;;;6172036;23;19916;-95
2023/05/12 17:33:42;;;;;;;;;;;;;;;;;;6168456;23;19916;-93
2023/05/12 17:36:11;;;;;;;;;;;;;;;;;;6166849;23;19927;-95
2023/05/12 17:38:39;;;;;;;;;;;;;;;;;;6166031;23;19916;-96
2023/05/12 17:41:05;;;;;;;;;;;;;;;;;;6167782;23;20333;-92
2023/05/12 17:43:31;;;;;;;;;;;;;;;;;;6166008;23;19990;-93
2023/05/12 17:46:10;;;;;;;;;;;;;;;;;;;;;
2023/05/12 17:48:42;;;;;;;;;;;;;;;;;;6193157;23;19920;-96
2023/05/12 17:51:08;;;;;;;;;;;;;;;;;;6202047;23;19920;-94
2023/05/12 17:53:44;;;;;;;;;;;;;;;;;;;;;
2023/05/12 17:58:46;;;;;;;;;;;;;;;;;;6190145;23;20291;-96
2023/05/12 18:01:18;;;;;;;;;;;;;;;;;;6173137;23;19942;-95
2023/05/12 18:03:44;;;;;;;;;;;;;;;;;;6139698;23;19920;-95
2023/05/12 18:06:11;;;;;;;;;;;;;;;;;;6137272;23;19987;-92
2023/05/12 18:08:37;;;;;;;;;;;;;;;;;;6134982;23;19996;-92
2023/05/12 18:11:03;;;;;;;;;;;;;;;;;;6134814;23;19939;-96
2023/05/12 18:13:29;;;;;;;;;;;;;;;;;;6134616;23;20322;-93
2023/05/12 18:15:55;;;;;;;;;;;;;;;;;;6138991;23;19927;-96
2023/05/12 18:18:21;;;;;;;;;;;;;;;;;;6137960;23;19995;-95
2023/05/12 18:20:50;;;;;;;;;;;;;;;;;;6136305;23;20199;-94
2023/05/12 18:23:19;;;;;;;;;;;;;;;;;;6161931;23;19924;-95
2023/05/12 18:25:48;;;;;;;;;;;;;;;;;;6164494;23;19971;-95
2023/05/12 18:28:14;;;;;;;;;;;;;;;;;;6138416;23;20221;-94
2023/05/12 18:30:40;;;;;;;;;;;;;;;;;;6144279;23;19931;-95
2023/05/12 18:33:09;;;;;;;;;;;;;;;;;;6142777;23;19920;-95
2023/05/12 18:35:36;;;;;;;;;;;;;;;;;;6135249;23;19962;-94
2023/05/12 18:38:03;;;;;;;;;;;;;;;;;;6136331;23;20338;-95
2023/05/12 18:40:32;;;;;;;;;;;;;;;;;;6142800;23;19940;-94
2023/05/12 19:15:07;;;;;;;;;;;;;;;;;;6168631;23;19968;-92
2023/05/12 19:20:37;;;;;;;;;;;;;;;;;;6174832;23;19992;-96
2023/05/12 19:26:21;;;;;;;;;;;;;;;;;;6170328;23;19932;-96
2023/05/12 19:28:31;;;;;;;;;;;;;;;;;;6131371;23;19946;-96
2023/05/12 19:30:58;;;;;;;;;;;;;;;;;;6161960;23;19920;-96
2023/05/12 19:33:28;;;;;;;;;;;;;;;;;;6138301;23;19916;-95
2023/05/12 19:35:54;;;;;;;;;;;;;;;;;;6133434;23;20299;-94
2023/05/12 19:38:20;;;;;;;;;;;;;;;;;;6131467;23;19973;-94
2023/05/12 19:40:49;;;;;;;;;;;;;;;;;;6132693;23;20004;-95
2023/05/12 19:43:15;;;;;;;;;;;;;;;;;;6133069;23;19931;-95
2023/05/12 19:45:41;;;;;;;;;;;;;;;;;;6170747;23;19924;-95
2023/05/12 19:48:07;;;;;;;;;;;;;;;;;;6166635;23;19968;-95
2023/05/12 19:50:42;;;;;;;;;;;;;;;;;;6167893;23;20295;-93
2023/05/12 19:53:11;;;;;;;;;;;;;;;;;;6167046;23;19916;-93
2023/05/12 20:06:02;;;;;;;;;;;;;;;;;;6205309;23;19920;-96
2023/05/12 20:08:28;;;;;;;;;;;;;;;;;;6163644;23;19927;-96
2023/05/12 20:11:06;;;;;;;;;;;;;;;;;;6187902;23;19922;-96
2023/05/12 20:13:32;;;;;;;;;;;;;;;;;;6172374;23;20241;-93
2023/05/12 20:16:02;;;;;;;;;;;;;;;;;;6190160;23;20322;-92
2023/05/12 20:18:28;;;;;;;;;;;;;;;;;;6165852;23;19962;-93
2023/05/12 20:20:59;;;;;;;;;;;;;;;;;;6169776;23;19916;-94
2023/05/12 20:23:28;;;;;;;;;;;;;;;;;;6171359;23;20222;-94
2023/05/12 20:25:54;;;;;;;;;;;;;;;;;;6190968;23;19923;-93
2023/05/12 20:28:22;;;;;;;;;;;;;;;;;;6166467;23;20277;-94
2023/05/12 20:30:49;;;;;;;;;;;;;;;;;;6166163;23;19934;-94
2023/05/12 20:33:15;;;;;;;;;;;;;;;;;;6166380;23;19993;-96
2023/05/12 20:35:41;;;;;;;;;;;;;;;;;;6166370;23;19920;-94
2023/05/12 20:38:07;;;;;;;;;;;;;;;;;;6166440;23;20046;-95
2023/05/12 20:40:33;;;;;;;;;;;;;;;;;;6165779;23;19923;-94
2023/05/12 20:42:58;;;;;;;;;;;;;;;;;;6166242;23;19920;-94
2023/05/12 20:45:24;;;;;;;;;;;;;;;;;;6166330;23;19916;-94
2023/05/12 20:47:50;;;;;;;;;;;;;;;;;;6166380;23;19923;-91
2023/05/12 20:50:16;;;;;;;;;;;;;;;;;;6166145;23;19916;-94
2023/05/12 20:52:45;;;;;;;;;;;;;;;;;;6166242;23;19935;-95
2023/05/12 20:55:10;;;;;;;;;;;;;;;;;;6165918;23;19916;-95
2023/05/12 20:57:38;;;;;;;;;;;;;;;;;;6166098;23;19942;-92
2023/05/12 21:00:05;;;;;;;;;;;;;;;;;;6165861;23;19952;-94
2023/05/12 21:02:31;;;;;;;;;;;;;;;;;;6165763;23;20317;-93
2023/05/12 21:04:57;;;;;;;;;;;;;;;;;;6172652;23;19911;-91
2023/05/12 21:07:23;;;;;;;;;;;;;;;;;;6175456;23;19916;-94
2023/05/12 21:09:49;;;;;;;;;;;;;;;;;;6165773;23;19920;-95
2023/05/12 21:12:15;;;;;;;;;;;;;;;;;;6190279;23;19919;-94
2023/05/12 21:14:41;;;;;;;;;;;;;;;;;;6190628;23;19923;-94
2023/05/12 21:17:07;;;;;;;;;;;;;;;;;;6165301;23;19919;-93
2023/05/12 21:19:32;;;;;;;;;;;;;;;;;;6190484;23;19938;-94
2023/05/12 21:21:58;;;;;;;;;;;;;;;;;;6165925;23;20226;-94
2023/05/12 21:24:24;;;;;;;;;;;;;;;;;;6166038;23;19915;-92
2023/05/12 21:26:50;;;;;;;;;;;;;;;;;;6191843;23;19955;-94
2023/05/12 21:29:16;;;;;;;;;;;;;;;;;;6190587;23;20190;-94
2023/05/12 21:31:42;;;;;;;;;;;;;;;;;;6165534;23;20222;-93
2023/05/12 21:34:11;;;;;;;;;;;;;;;;;;6190469;23;19916;-93
2023/05/12 21:36:37;;;;;;;;;;;;;;;;;;6189920;23;19920;-94
2023/05/12 21:39:03;;;;;;;;;;;;;;;;;;6165266;23;19954;-93
2023/05/12 21:41:29;;;;;;;;;;;;;;;;;;6189963;23;19978;-94
2023/05/12 21:43:55;;;;;;;;;;;;;;;;;;6165021;23;20378;-93
2023/05/12 21:46:21;;;;;;;;;;;;;;;;;;6165058;23;19916;-93
2023/05/12 21:48:47;;;;;;;;;;;;;;;;;;6164889;23;19947;-93
2023/05/12 21:51:13;;;;;;;;;;;;;;;;;;6165066;23;20202;-92
2023/05/12 21:53:39;;;;;;;;;;;;;;;;;;6190248;23;20341;-93
2023/05/12 21:56:05;;;;;;;;;;;;;;;;;;6164641;23;19920;-92
2023/05/12 21:58:31;;;;;;;;;;;;;;;;;;6165363;23;20318;-93
2023/05/12 22:00:57;;;;;;;;;;;;;;;;;;6165375;23;19923;-93
2023/05/12 22:03:24;;;;;;;;;;;;;;;;;;6165437;23;19931;-93
2023/05/12 22:05:50;;;;;;;;;;;;;;;;;;6189783;23;19963;-95
2023/05/12 22:08:16;;;;;;;;;;;;;;;;;;6205806;23;19960;-91
2023/05/12 22:10:42;;;;;;;;;;;;;;;;;;6192690;23;19970;-93
2023/05/12 22:13:08;;;;;;;;;;;;;;;;;;6164991;23;19963;-94
2023/05/12 22:15:34;;;;;;;;;;;;;;;;;;6165293;23;19916;-93
2023/05/12 22:18:00;;;;;;;;;;;;;;;;;;6165495;23;19927;-94
2023/05/12 22:20:25;;;;;;;;;;;;;;;;;;6189916;23;19916;-94
2023/05/12 22:22:51;;;;;;;;;;;;;;;;;;6190097;23;19916;-96
2023/05/12 22:25:17;;;;;;;;;;;;;;;;;;6165468;23;19916;-92
2023/05/12 22:27:43;;;;;;;;;;;;;;;;;;6190420;23;19916;-96
2023/05/12 22:30:09;;;;;;;;;;;;;;;;;;6189793;23;19920;-95
2023/05/12 22:32:35;;;;;;;;;;;;;;;;;;6165473;23;19998;-92
2023/05/12 22:35:01;;;;;;;;;;;;;;;;;;6189861;23;19916;-93
2023/05/12 22:37:27;;;;;;;;;;;;;;;;;;6189931;23;19923;-95
2023/05/12 22:39:53;;;;;;;;;;;;;;;;;;6165486;23;19916;-95
2023/05/12 22:42:19;;;;;;;;;;;;;;;;;;6164551;23;20257;-95
2023/05/12 22:44:45;;;;;;;;;;;;;;;;;;6165040;23;20156;-94
2023/05/12 22:47:11;;;;;;;;;;;;;;;;;;6165034;23;20003;-94
2023/05/12 22:49:37;;;;;;;;;;;;;;;;;;6190125;23;19943;-95
2023/05/12 22:52:04;;;;;;;;;;;;;;;;;;6189700;23;19966;-96
2023/05/12 22:54:30;;;;;;;;;;;;;;;;;;6165159;23;19916;-94
2023/05/12 22:56:56;;;;;;;;;;;;;;;;;;6164514;23;19920;-95
2023/05/12 22:59:22;;;;;;;;;;;;;;;;;;6164579;23;19923;-95
2023/05/12 23:01:48;;;;;;;;;;;;;;;;;;6165006;23;19927;-95
2023/05/12 23:04:14;;;;;;;;;;;;;;;;;;6164608;23;19916;-96
2023/05/12 23:06:40;;;;;;;;;;;;;;;;;;6164632;23;19920;-93
2023/05/12 23:09:06;;;;;;;;;;;;;;;;;;6189715;23;19916;-93
2023/05/12 23:11:32;;;;;;;;;;;;;;;;;;6164581;23;19916;-95
2023/05/12 23:13:57;;;;;;;;;;;;;;;;;;6189732;23;19919;-94
2023/05/12 23:16:24;;;;;;;;;;;;;;;;;;6189976;23;19943;-95
2023/05/12 23:18:50;;;;;;;;;;;;;;;;;;6164789;23;19916;-95
2023/05/12 23:21:16;;;;;;;;;;;;;;;;;;6173417;23;19923;-93
2023/05/12 23:23:42;;;;;;;;;;;;;;;;;;6178496;23;19942;-95
2023/05/12 23:26:08;;;;;;;;;;;;;;;;;;6165142;23;20330;-94
2023/05/12 23:28:34;;;;;;;;;;;;;;;;;;6164991;23;19915;-93
2023/05/12 23:31:00;;;;;;;;;;;;;;;;;;6165083;23;19966;-94
2023/05/12 23:33:26;;;;;;;;;;;;;;;;;;6164524;23;19916;-93
2023/05/12 23:35:52;;;;;;;;;;;;;;;;;;6164855;23;19931;-94
2023/05/12 23:38:18;;;;;;;;;;;;;;;;;;6164821;23;19942;-95
2023/05/12 23:40:44;;;;;;;;;;;;;;;;;;6164620;23;19947;-94
2023/05/12 23:43:10;;;;;;;;;;;;;;;;;;6164406;23;20231;-94
2023/05/12 23:45:36;;;;;;;;;;;;;;;;;;6164610;23;19922;-93
2023/05/12 23:48:02;;;;;;;;;;;;;;;;;;6188599;23;20432;-93
2023/05/12 23:50:28;;;;;;;;;;;;;;;;;;6164317;23;19916;-94
2023/05/12 23:52:55;;;;;;;;;;;;;;;;;;6189571;23;19999;-94
2023/05/12 23:55:21;;;;;;;;;;;;;;;;;;6164740;23;19939;-93
2023/05/12 23:57:47;;;;;;;;;;;;;;;;;;6164461;23;19919;-94
